HomeShort term forecast

Short term forecast

Graphical weather forecast for the next 48 hours for Montreal:
Short term forecast
This weather forecast is automatically refreshed every 3 hours.

Hourly Experimental Forecast for the next 48 hours

Overall summary: Mostly cloudy throughout the day.

 Date & Hour   Temp   Feel   Baro   Hum   Speed & Bearing   Wind Gust   Precip.%   Precip.   Visibility   Cloud cover   Conditions 
 17/12/2018 - 01:00  -0.3°C  -0.3°C  1010.5 hPa  87%  2.8 km/h   7.9 km/h  11%  0.05 mm/h  16.1km  91%  Mostly Cloudy 
 17/12/2018 - 02:00  0.0°C  0.0°C  1009.7 hPa  85%  3.5 km/h   6.3 km/h  11%  0.05 mm/h  16.1km  99%  Overcast 
 17/12/2018 - 03:00  -0.8°C  -0.8°C  1008.7 hPa  88%  4.3 km/h   6.8 km/h  5%  0.04 mm/h  16.1km  85%  Mostly Cloudy 
 17/12/2018 - 04:00  0.7°C  0.7°C  1008.0 hPa  81%  4.5 km/h   8.9 km/h  4%  0.04 mm/h  16.1km  95%  Overcast 
 17/12/2018 - 05:00  0.4°C  0.4°C  1007.1 hPa  82%  4.5 km/h   8.0 km/h  5%  0.08 mm/h  16.1km  96%  Overcast 
 17/12/2018 - 06:00  0.2°C  0.2°C  1005.8 hPa  84%  4.1 km/h   6.7 km/h  3%  0.04 mm/h  16.1km  98%  Overcast 
 17/12/2018 - 07:00  0.1°C  0.1°C  1005.0 hPa  86%  4.4 km/h   10.5 km/h  2%  0.01 mm/h  16.1km  100%  Overcast 
 17/12/2018 - 08:00  0.1°C  -1.5°C  1004.6 hPa  88%  5.0 km/h   10.9 km/h  4%  0.03 mm/h  16.1km  100%  Overcast 
 17/12/2018 - 09:00  -0.1°C  -2.5°C  1004.5 hPa  93%  7.0 km/h   18.9 km/h  8%  0.11 mm/h  14.0km  100%  Overcast 
 17/12/2018 - 10:00  -0.2°C  -3.4°C  1004.4 hPa  96%  9.3 km/h   22.9 km/h  10%  0.10 mm/h  11.1km  94%  Overcast 
 17/12/2018 - 11:00  0.0°C  -3.6°C  1003.7 hPa  96%  11.4 km/h   25.9 km/h  16%  0.11 mm/h  15.5km  81%  Mostly Cloudy 
 17/12/2018 - 12:00  0.3°C  -3.9°C  1003.0 hPa  95%  14.2 km/h   29.8 km/h  17%  0.06 mm/h  16.1km  83%  Mostly Cloudy 
 17/12/2018 - 13:00  0.6°C  -3.8°C  1002.3 hPa  93%  15.9 km/h   31.6 km/h  14%  0.02 mm/h  16.1km  86%  Mostly Cloudy 
 17/12/2018 - 14:00  0.4°C  -4.5°C  1002.6 hPa  89%  18.4 km/h   34.2 km/h  10%  0.01 mm/h  16.1km  92%  Mostly Cloudy 
 17/12/2018 - 15:00  -0.1°C  -5.3°C  1002.7 hPa  85%  20.0 km/h   39.0 km/h  7%  0.01 mm/h  16.1km  83%  Mostly Cloudy 
 17/12/2018 - 16:00  -0.4°C  -5.9°C  1003.2 hPa  80%  21.2 km/h   42.0 km/h  4%  0.02 mm/h  16.1km  77%  Mostly Cloudy 
 17/12/2018 - 17:00  -0.9°C  -6.7°C  1003.9 hPa  77%  22.1 km/h   42.4 km/h  2%  0.01 mm/h  16.1km  79%  Mostly Cloudy 
 17/12/2018 - 18:00  -1.9°C  -8.0°C  1005.0 hPa  77%  23.0 km/h   41.3 km/h  2%  0.02 mm/h  16.1km  85%  Mostly Cloudy 
 17/12/2018 - 19:00  -2.5°C  -8.9°C  1006.0 hPa  74%  23.8 km/h   40.2 km/h  2%  0.03 mm/h  16.1km  91%  Mostly Cloudy 
 17/12/2018 - 20:00  -3.0°C  -9.6°C  1006.9 hPa  71%  24.3 km/h   39.5 km/h  2%  0.05 mm/h  13.9km  95%  Overcast 
 17/12/2018 - 21:00  -3.5°C  -10.4°C  1007.9 hPa  68%  24.7 km/h   38.9 km/h  3%  0.10 mm/h  7.9km  98%  Overcast 
 17/12/2018 - 22:00  -4.1°C  -11.1°C  1008.6 hPa  65%  24.6 km/h   38.5 km/h  4%  0.14 mm/h  4.1km  100%  Overcast 
 17/12/2018 - 23:00  -4.6°C  -11.6°C  1009.1 hPa  64%  23.9 km/h   38.3 km/h  3%  0.10 mm/h  4.9km  100%  Overcast 
 18/12/2018 - 00:00  -4.9°C  -11.9°C  1009.5 hPa  62%  22.8 km/h   38.3 km/h  2%  0.05 mm/h  8.0km  100%  Overcast 
 18/12/2018 - 01:00  -5.3°C  -12.2°C  1009.9 hPa  61%  22.0 km/h   38.2 km/h  1%  0.03 mm/h  11.6km  98%  Overcast 
 18/12/2018 - 02:00  -5.8°C  -12.8°C  1010.5 hPa  60%  21.8 km/h   38.0 km/h  1%  0.02 mm/h  15.9km  86%  Mostly Cloudy 
 18/12/2018 - 03:00  -6.4°C  -13.5°C  1011.3 hPa  61%  21.7 km/h   37.6 km/h  1%  0.01 mm/h  16.1km  69%  Mostly Cloudy 
 18/12/2018 - 04:00  -6.9°C  -14.2°C  1012.1 hPa  61%  21.7 km/h   37.7 km/h  1%  0.01 mm/h  16.1km  55%  Partly Cloudy 
 18/12/2018 - 05:00  -7.8°C  -15.3°C  1013.1 hPa  63%  21.4 km/h   39.0 km/h  0%  --  16.1km  44%  Partly Cloudy 
 18/12/2018 - 06:00  -8.7°C  -16.5°C  1014.2 hPa  66%  21.2 km/h   40.9 km/h  0%  --  16.1km  35%  Partly Cloudy 
 18/12/2018 - 07:00  -9.3°C  -17.2°C  1015.1 hPa  67%  21.1 km/h   41.6 km/h  0%  --  16.1km  26%  Partly Cloudy 
 18/12/2018 - 08:00  -9.3°C  -17.2°C  1015.9 hPa  67%  21.3 km/h   40.0 km/h  0%  --  16.1km  18%  Clear 
 18/12/2018 - 09:00  -8.9°C  -16.8°C  1016.5 hPa  65%  21.7 km/h   37.4 km/h  0%  --  16.1km  7%  Clear 
 18/12/2018 - 10:00  -8.3°C  -16.1°C  1016.9 hPa  62%  22.3 km/h   35.3 km/h  0%  --  16.1km  0%  Clear 
 18/12/2018 - 11:00  -7.8°C  -15.7°C  1017.2 hPa  62%  23.5 km/h   34.4 km/h  0%  --  16.1km  0%  Clear 
 18/12/2018 - 12:00  -7.3°C  -15.2°C  1017.2 hPa  61%  24.9 km/h   34.3 km/h  0%  --  16.1km  0%  Clear 
 18/12/2018 - 13:00  -7.0°C  -14.9°C  1017.3 hPa  62%  25.4 km/h   34.3 km/h  0%  --  16.1km  0%  Clear 
 18/12/2018 - 14:00  -6.9°C  -14.7°C  1017.6 hPa  62%  24.5 km/h   34.6 km/h  0%  --  16.1km  0%  Clear 
 18/12/2018 - 15:00  -7.0°C  -14.6°C  1017.9 hPa  62%  22.7 km/h   35.2 km/h  0%  --  16.1km  0%  Clear 
 18/12/2018 - 16:00  -7.3°C  -14.6°C  1018.2 hPa  63%  21.0 km/h   35.6 km/h  0%  --  16.1km  0%  Clear 
 18/12/2018 - 17:00  -7.3°C  -14.4°C  1018.8 hPa  63%  19.6 km/h   35.7 km/h  0%  --  16.1km  0%  Clear 
 18/12/2018 - 18:00  -7.4°C  -14.2°C  1019.6 hPa  63%  18.3 km/h   35.6 km/h  0%  --  16.1km  0%  Clear 
 18/12/2018 - 19:00  -7.4°C  -14.0°C  1020.1 hPa  62%  17.2 km/h   34.7 km/h  0%  --  16.1km  0%  Clear 
 18/12/2018 - 20:00  -7.3°C  -13.7°C  1020.4 hPa  62%  16.3 km/h   32.2 km/h  0%  --  16.1km  1%  Clear 
 18/12/2018 - 21:00  -7.8°C  -14.2°C  1020.6 hPa  65%  15.6 km/h   28.9 km/h  0%  --  16.1km  1%  Clear 
 18/12/2018 - 22:00  -7.7°C  -14.0°C  1020.6 hPa  65%  15.1 km/h   26.5 km/h  0%  --  16.1km  2%  Clear 
 18/12/2018 - 23:00  -7.7°C  -13.9°C  1020.6 hPa  65%  14.8 km/h   26.0 km/h  0%  --  16.1km  4%  Clear 
 19/12/2018 - 00:00  -7.7°C  -13.8°C  1020.4 hPa  66%  14.7 km/h   26.4 km/h  0%  --  16.1km  7%  Clear 
Test

 

Past weather and reports

Past weatherFind in this section the past weather conditions, weather archive, graphics, reports and statistics.

Current conditions

Current weather condition for MontrealAll you need to know about the current weather conditions for Montreal. Weather data is updated every 10 minutes.

Weather forecast

Current Montreal weatherSince 2004, celinium.com website has provided accurate weather forecast for Montreal's island.